KMRY/MRY METAR and TAF weather

Enter ICAO airport designator
Station Type Date Time Source
KMRY METAR 2019/02/21 10:54 UTC NOAA

KMRY 211054Z AUTO 27010G24KT 7SM -RA SCT029 BKN042 OVC100 08/03 A2970 RMK AO2 RAE12B41 SLP071 P0002 T00780033


Station Type Date Time Source
KMRY Decoded METAR 2019/02/21 10:54 UTC NOAA

MONTEREY PENINSULA AIRPORT, CA, United States (KMRY) 36-35N 121-51W 66M
Feb 21, 2019 - 05:54 AM EST / 2019.02.21 1054 UTC
Wind: from the W (270 degrees) at 12 MPH (10 KT) gusting to 28 MPH (24 KT):0
Visibility: 7 mile(s):0
Sky conditions: overcast
Weather: light rain
Precipitation last hour: 0.02 inches
Temperature: 46.0 F (7.8 C)
Dew Point: 37.9 F (3.3 C)
Relative Humidity: 73%
Pressure (altimeter): 29.7 in. Hg (1005 hPa)
ob: KMRY 211054Z AUTO 27010G24KT 7SM -RA SCT029 BKN042 OVC100 08/03 A2970 RMK AO2 RAE12B41 SLP071 P0002 T00780033
cycle: 11

Station Type Date Time Source
KMRY TAF 2019/02/21 12:30 UTC NOAA

TAF KMRY 211129Z 2112/2212 27012G20KT 6SM -SHRA BR SCT030 BKN050 BKN080
FM211400 30008KT P6SM VCSH FEW035 SCT050 SCT100
FM211800 32010KT P6SM FEW050 FEW080
FM212100 34014G21KT P6SM SKC
FM220300 35008KT P6SM SKC
FM220600 VRB03KT P6SM SKC


Example: see airport list